sensor_id;sensor_type;location;lat;lon;timestamp;P1;durP1;ratioP1;P2;durP2;ratioP2
5519;SDS011;2782;52.362;10.012;2023-06-22T00:00:34;16.17;;;9.52;;
5519;SDS011;2782;52.362;10.012;2023-06-22T00:01:35;14.10;;;10.50;;
5519;SDS011;2782;52.362;10.012;2023-06-22T00:02:36;10.63;;;9.43;;
5519;SDS011;2782;52.362;10.012;2023-06-22T00:03:37;11.80;;;9.30;;
5519;SDS011;2782;52.362;10.012;2023-06-22T00:04:38;15.05;;;9.65;;
5519;SDS011;2782;52.362;10.012;2023-06-22T00:05:39;11.17;;;9.97;;
5519;SDS011;2782;52.362;10.012;2023-06-22T00:06:41;13.57;;;10.40;;
5519;SDS011;2782;52.362;10.012;2023-06-22T00:07:42;13.23;;;9.50;;
5519;SDS011;2782;52.362;10.012;2023-06-22T00:08:43;13.60;;;9.13;;
5519;SDS011;2782;52.362;10.012;2023-06-22T00:09:45;15.47;;;9.53;;
5519;SDS011;2782;52.362;10.012;2023-06-22T00:10:47;11.90;;;9.40;;
5519;SDS011;2782;52.362;10.012;2023-06-22T00:11:47;12.93;;;9.17;;
5519;SDS011;2782;52.362;10.012;2023-06-22T00:12:49;11.88;;;9.35;;
5519;SDS011;2782;52.362;10.012;2023-06-22T00:13:49;11.80;;;9.30;;
5519;SDS011;2782;52.362;10.012;2023-06-22T00:14:51;12.85;;;9.57;;
5519;SDS011;2782;52.362;10.012;2023-06-22T00:15:52;12.90;;;9.20;;
5519;SDS011;2782;52.362;10.012;2023-06-22T00:16:53;10.77;;;9.68;;
5519;SDS011;2782;52.362;10.012;2023-06-22T00:17:54;10.30;;;9.20;;
5519;SDS011;2782;52.362;10.012;2023-06-22T00:18:57;10.10;;;8.68;;
5519;SDS011;2782;52.362;10.012;2023-06-22T00:20:00;11.05;;;8.90;;
5519;SDS011;2782;52.362;10.012;2023-06-22T00:21:05;11.20;;;9.45;;
5519;SDS011;2782;52.362;10.012;2023-06-22T00:22:06;11.60;;;10.20;;
5519;SDS011;2782;52.362;10.012;2023-06-22T00:23:07;15.95;;;9.75;;
5519;SDS011;2782;52.362;10.012;2023-06-22T00:24:08;13.40;;;9.63;;
5519;SDS011;2782;52.362;10.012;2023-06-22T00:25:11;11.02;;;9.45;;
5519;SDS011;2782;52.362;10.012;2023-06-22T00:26:12;12.32;;;10.00;;
5519;SDS011;2782;52.362;10.012;2023-06-22T00:27:13;10.55;;;9.45;;
5519;SDS011;2782;52.362;10.012;2023-06-22T00:28:14;12.53;;;11.23;;
5519;SDS011;2782;52.362;10.012;2023-06-22T00:29:16;14.05;;;11.18;;
5519;SDS011;2782;52.362;10.012;2023-06-22T00:30:18;11.85;;;10.63;;
5519;SDS011;2782;52.362;10.012;2023-06-22T00:31:20;12.90;;;11.52;;
5519;SDS011;2782;52.362;10.012;2023-06-22T00:32:22;12.70;;;10.77;;
5519;SDS011;2782;52.362;10.012;2023-06-22T00:33:23;11.52;;;10.35;;
5519;SDS011;2782;52.362;10.012;2023-06-22T00:34:25;12.13;;;10.30;;
5519;SDS011;2782;52.362;10.012;2023-06-22T00:35:26;15.07;;;10.70;;
5519;SDS011;2782;52.362;10.012;2023-06-22T00:36:29;11.45;;;10.15;;
5519;SDS011;2782;52.362;10.012;2023-06-22T00:37:29;14.83;;;11.27;;
5519;SDS011;2782;52.362;10.012;2023-06-22T00:38:31;11.95;;;10.60;;
5519;SDS011;2782;52.362;10.012;2023-06-22T00:39:31;12.93;;;10.63;;
5519;SDS011;2782;52.362;10.012;2023-06-22T00:40:35;12.45;;;10.80;;
5519;SDS011;2782;52.362;10.012;2023-06-22T00:41:36;14.15;;;11.25;;
5519;SDS011;2782;52.362;10.012;2023-06-22T00:42:38;14.48;;;11.02;;
5519;SDS011;2782;52.362;10.012;2023-06-22T00:43:39;12.33;;;11.03;;
5519;SDS011;2782;52.362;10.012;2023-06-22T00:44:42;11.77;;;10.52;;
5519;SDS011;2782;52.362;10.012;2023-06-22T00:45:42;14.23;;;10.90;;
5519;SDS011;2782;52.362;10.012;2023-06-22T00:46:44;12.00;;;10.57;;
5519;SDS011;2782;52.362;10.012;2023-06-22T00:47:45;13.13;;;11.20;;
5519;SDS011;2782;52.362;10.012;2023-06-22T00:48:46;12.18;;;10.88;;
5519;SDS011;2782;52.362;10.012;2023-06-22T00:49:48;16.57;;;10.43;;
5519;SDS011;2782;52.362;10.012;2023-06-22T00:50:52;13.30;;;10.80;;
5519;SDS011;2782;52.362;10.012;2023-06-22T00:51:55;16.23;;;10.90;;
5519;SDS011;2782;52.362;10.012;2023-06-22T00:52:58;15.10;;;11.50;;
5519;SDS011;2782;52.362;10.012;2023-06-22T00:54:00;11.48;;;10.27;;
5519;SDS011;2782;52.362;10.012;2023-06-22T00:55:02;13.73;;;11.63;;
5519;SDS011;2782;52.362;10.012;2023-06-22T00:56:05;17.88;;;12.00;;
5519;SDS011;2782;52.362;10.012;2023-06-22T00:57:07;14.63;;;11.65;;
5519;SDS011;2782;52.362;10.012;2023-06-22T00:58:10;14.40;;;11.93;;
5519;SDS011;2782;52.362;10.012;2023-06-22T00:59:12;14.38;;;12.43;;
5519;SDS011;2782;52.362;10.012;2023-06-22T01:00:17;12.50;;;11.20;;
5519;SDS011;2782;52.362;10.012;2023-06-22T01:01:19;12.93;;;11.63;;
5519;SDS011;2782;52.362;10.012;2023-06-22T01:02:23;15.10;;;12.25;;
5519;SDS011;2782;52.362;10.012;2023-06-22T01:03:25;15.77;;;12.80;;
5519;SDS011;2782;52.362;10.012;2023-06-22T01:04:33;13.57;;;11.67;;
5519;SDS011;2782;52.362;10.012;2023-06-22T01:05:36;14.30;;;12.13;;
5519;SDS011;2782;52.362;10.012;2023-06-22T01:06:38;14.20;;;11.77;;
5519;SDS011;2782;52.362;10.012;2023-06-22T01:07:49;16.00;;;12.90;;
5519;SDS011;2782;52.362;10.012;2023-06-22T01:09:01;13.95;;;12.45;;
5519;SDS011;2782;52.362;10.012;2023-06-22T01:10:07;17.52;;;12.98;;
5519;SDS011;2782;52.362;10.012;2023-06-22T01:11:17;14.27;;;12.77;;
5519;SDS011;2782;52.362;10.012;2023-06-22T01:12:22;15.32;;;12.60;;
5519;SDS011;2782;52.362;10.012;2023-06-22T01:13:28;15.07;;;12.77;;
5519;SDS011;2782;52.362;10.012;2023-06-22T01:14:40;18.00;;;12.68;;
5519;SDS011;2782;52.362;10.012;2023-06-22T01:15:48;14.95;;;13.05;;
5519;SDS011;2782;52.362;10.012;2023-06-22T01:16:54;16.08;;;13.10;;
5519;SDS011;2782;52.362;10.012;2023-06-22T01:17:55;16.90;;;12.70;;
5519;SDS011;2782;52.362;10.012;2023-06-22T01:19:00;15.85;;;13.07;;
5519;SDS011;2782;52.362;10.012;2023-06-22T01:20:10;14.05;;;12.55;;
5519;SDS011;2782;52.362;10.012;2023-06-22T01:21:14;13.57;;;12.00;;
5519;SDS011;2782;52.362;10.012;2023-06-22T01:22:18;15.30;;;12.85;;
5519;SDS011;2782;52.362;10.012;2023-06-22T01:23:26;12.93;;;11.57;;
5519;SDS011;2782;52.362;10.012;2023-06-22T01:24:30;15.45;;;13.40;;
5519;SDS011;2782;52.362;10.012;2023-06-22T01:25:38;14.77;;;12.43;;
5519;SDS011;2782;52.362;10.012;2023-06-22T01:26:51;14.32;;;12.80;;
5519;SDS011;2782;52.362;10.012;2023-06-22T01:28:03;14.73;;;12.15;;
5519;SDS011;2782;52.362;10.012;2023-06-22T01:29:09;16.17;;;12.30;;
5519;SDS011;2782;52.362;10.012;2023-06-22T01:30:14;15.52;;;11.90;;
5519;SDS011;2782;52.362;10.012;2023-06-22T01:31:16;16.98;;;11.55;;
5519;SDS011;2782;52.362;10.012;2023-06-22T01:32:20;21.20;;;13.48;;
5519;SDS011;2782;52.362;10.012;2023-06-22T01:33:21;13.45;;;12.05;;
5519;SDS011;2782;52.362;10.012;2023-06-22T01:34:23;16.38;;;12.20;;
5519;SDS011;2782;52.362;10.012;2023-06-22T01:35:24;15.75;;;12.00;;
5519;SDS011;2782;52.362;10.012;2023-06-22T01:36:26;14.18;;;12.07;;
5519;SDS011;2782;52.362;10.012;2023-06-22T01:37:28;17.13;;;12.70;;
5519;SDS011;2782;52.362;10.012;2023-06-22T01:38:33;14.93;;;12.35;;
5519;SDS011;2782;52.362;10.012;2023-06-22T01:39:35;16.52;;;12.25;;
5519;SDS011;2782;52.362;10.012;2023-06-22T01:40:37;13.63;;;11.70;;
5519;SDS011;2782;52.362;10.012;2023-06-22T01:41:38;13.20;;;11.70;;
5519;SDS011;2782;52.362;10.012;2023-06-22T01:42:42;14.55;;;12.45;;
5519;SDS011;2782;52.362;10.012;2023-06-22T01:43:44;14.13;;;11.32;;
5519;SDS011;2782;52.362;10.012;2023-06-22T01:44:48;12.95;;;10.20;;
5519;SDS011;2782;52.362;10.012;2023-06-22T01:45:48;14.27;;;11.40;;
5519;SDS011;2782;52.362;10.012;2023-06-22T01:46:50;14.73;;;11.23;;
5519;SDS011;2782;52.362;10.012;2023-06-22T01:47:52;15.20;;;11.98;;
5519;SDS011;2782;52.362;10.012;2023-06-22T01:48:55;12.40;;;11.10;;
5519;SDS011;2782;52.362;10.012;2023-06-22T01:49:56;13.17;;;11.77;;
5519;SDS011;2782;52.362;10.012;2023-06-22T01:50:58;13.60;;;10.88;;
5519;SDS011;2782;52.362;10.012;2023-06-22T01:51:58;14.47;;;10.60;;
5519;SDS011;2782;52.362;10.012;2023-06-22T01:53:00;12.88;;;11.20;;
5519;SDS011;2782;52.362;10.012;2023-06-22T01:54:01;14.03;;;12.43;;
5519;SDS011;2782;52.362;10.012;2023-06-22T01:55:03;11.88;;;10.52;;
5519;SDS011;2782;52.362;10.012;2023-06-22T01:56:04;13.68;;;11.45;;
5519;SDS011;2782;52.362;10.012;2023-06-22T01:57:06;15.45;;;11.95;;
5519;SDS011;2782;52.362;10.012;2023-06-22T01:58:08;15.45;;;11.20;;
5519;SDS011;2782;52.362;10.012;2023-06-22T01:59:11;15.63;;;11.23;;
5519;SDS011;2782;52.362;10.012;2023-06-22T02:00:18;18.38;;;11.60;;
5519;SDS011;2782;52.362;10.012;2023-06-22T02:01:24;14.75;;;10.68;;
5519;SDS011;2782;52.362;10.012;2023-06-22T02:02:32;14.60;;;11.57;;
5519;SDS011;2782;52.362;10.012;2023-06-22T02:03:41;16.95;;;11.43;;
5519;SDS011;2782;52.362;10.012;2023-06-22T02:04:46;12.57;;;11.27;;
5519;SDS011;2782;52.362;10.012;2023-06-22T02:05:54;12.05;;;10.82;;
5519;SDS011;2782;52.362;10.012;2023-06-22T02:06:58;14.52;;;11.50;;
5519;SDS011;2782;52.362;10.012;2023-06-22T02:08:02;13.77;;;11.90;;
5519;SDS011;2782;52.362;10.012;2023-06-22T02:09:08;15.90;;;11.07;;
5519;SDS011;2782;52.362;10.012;2023-06-22T02:10:13;11.95;;;10.60;;
5519;SDS011;2782;52.362;10.012;2023-06-22T02:11:15;15.10;;;11.57;;
5519;SDS011;2782;52.362;10.012;2023-06-22T02:12:21;14.82;;;11.80;;
5519;SDS011;2782;52.362;10.012;2023-06-22T02:13:23;16.95;;;11.98;;
5519;SDS011;2782;52.362;10.012;2023-06-22T02:14:25;13.85;;;12.07;;
5519;SDS011;2782;52.362;10.012;2023-06-22T02:15:28;13.82;;;11.63;;
5519;SDS011;2782;52.362;10.012;2023-06-22T02:16:32;15.98;;;11.80;;
5519;SDS011;2782;52.362;10.012;2023-06-22T02:17:35;18.67;;;12.25;;
5519;SDS011;2782;52.362;10.012;2023-06-22T02:18:36;16.25;;;12.18;;
5519;SDS011;2782;52.362;10.012;2023-06-22T02:19:37;12.93;;;11.40;;
5519;SDS011;2782;52.362;10.012;2023-06-22T02:20:39;15.95;;;11.48;;
5519;SDS011;2782;52.362;10.012;2023-06-22T02:21:40;18.63;;;11.27;;
5519;SDS011;2782;52.362;10.012;2023-06-22T02:22:42;16.50;;;10.50;;
5519;SDS011;2782;52.362;10.012;2023-06-22T02:23:42;14.33;;;11.40;;
5519;SDS011;2782;52.362;10.012;2023-06-22T02:24:44;15.05;;;11.13;;
5519;SDS011;2782;52.362;10.012;2023-06-22T02:25:45;15.07;;;11.40;;
5519;SDS011;2782;52.362;10.012;2023-06-22T02:26:47;12.27;;;10.15;;
5519;SDS011;2782;52.362;10.012;2023-06-22T02:27:47;12.70;;;10.80;;
5519;SDS011;2782;52.362;10.012;2023-06-22T02:28:49;13.50;;;11.40;;
5519;SDS011;2782;52.362;10.012;2023-06-22T02:29:49;13.70;;;11.60;;
5519;SDS011;2782;52.362;10.012;2023-06-22T02:30:52;15.27;;;11.30;;
5519;SDS011;2782;52.362;10.012;2023-06-22T02:31:53;14.50;;;10.98;;
5519;SDS011;2782;52.362;10.012;2023-06-22T02:32:56;15.63;;;10.90;;
5519;SDS011;2782;52.362;10.012;2023-06-22T02:33:58;12.27;;;10.93;;
5519;SDS011;2782;52.362;10.012;2023-06-22T02:35:01;15.63;;;11.90;;
5519;SDS011;2782;52.362;10.012;2023-06-22T02:36:04;11.75;;;10.40;;
5519;SDS011;2782;52.362;10.012;2023-06-22T02:37:09;12.52;;;10.88;;
5519;SDS011;2782;52.362;10.012;2023-06-22T02:38:10;12.57;;;11.07;;
5519;SDS011;2782;52.362;10.012;2023-06-22T02:39:12;12.55;;;10.70;;
5519;SDS011;2782;52.362;10.012;2023-06-22T02:40:12;16.17;;;11.67;;
5519;SDS011;2782;52.362;10.012;2023-06-22T02:41:14;16.25;;;10.75;;
5519;SDS011;2782;52.362;10.012;2023-06-22T02:42:18;13.25;;;10.70;;
5519;SDS011;2782;52.362;10.012;2023-06-22T02:43:21;16.60;;;10.57;;
5519;SDS011;2782;52.362;10.012;2023-06-22T02:44:21;15.43;;;10.73;;
5519;SDS011;2782;52.362;10.012;2023-06-22T02:45:23;13.25;;;10.18;;
5519;SDS011;2782;52.362;10.012;2023-06-22T02:46:25;13.13;;;10.47;;
5519;SDS011;2782;52.362;10.012;2023-06-22T02:47:27;13.75;;;10.95;;
5519;SDS011;2782;52.362;10.012;2023-06-22T02:48:28;13.35;;;10.98;;
5519;SDS011;2782;52.362;10.012;2023-06-22T02:49:29;12.63;;;10.87;;
5519;SDS011;2782;52.362;10.012;2023-06-22T02:50:30;13.48;;;10.10;;
5519;SDS011;2782;52.362;10.012;2023-06-22T02:51:32;11.83;;;10.60;;
5519;SDS011;2782;52.362;10.012;2023-06-22T02:52:35;11.65;;;9.90;;
5519;SDS011;2782;52.362;10.012;2023-06-22T02:53:36;11.48;;;9.63;;
5519;SDS011;2782;52.362;10.012;2023-06-22T02:54:38;12.38;;;10.40;;
5519;SDS011;2782;52.362;10.012;2023-06-22T02:55:38;13.70;;;10.80;;
5519;SDS011;2782;52.362;10.012;2023-06-22T02:56:40;13.80;;;9.82;;
5519;SDS011;2782;52.362;10.012;2023-06-22T02:57:43;16.98;;;10.02;;
5519;SDS011;2782;52.362;10.012;2023-06-22T02:58:46;13.75;;;11.00;;
5519;SDS011;2782;52.362;10.012;2023-06-22T02:59:47;13.27;;;10.23;;
5519;SDS011;2782;52.362;10.012;2023-06-22T03:00:48;17.90;;;11.52;;
5519;SDS011;2782;52.362;10.012;2023-06-22T03:01:54;14.35;;;10.57;;
5519;SDS011;2782;52.362;10.012;2023-06-22T03:02:56;13.85;;;10.77;;
5519;SDS011;2782;52.362;10.012;2023-06-22T03:03:57;16.58;;;10.40;;
5519;SDS011;2782;52.362;10.012;2023-06-22T03:04:58;20.00;;;10.40;;
5519;SDS011;2782;52.362;10.012;2023-06-22T03:06:01;16.45;;;11.43;;
5519;SDS011;2782;52.362;10.012;2023-06-22T03:07:03;16.27;;;10.80;;
5519;SDS011;2782;52.362;10.012;2023-06-22T03:08:04;27.95;;;10.25;;
5519;SDS011;2782;52.362;10.012;2023-06-22T03:09:05;16.13;;;10.75;;
5519;SDS011;2782;52.362;10.012;2023-06-22T03:10:06;16.73;;;11.20;;
5519;SDS011;2782;52.362;10.012;2023-06-22T03:11:09;17.08;;;10.40;;
5519;SDS011;2782;52.362;10.012;2023-06-22T03:12:10;11.73;;;10.50;;
5519;SDS011;2782;52.362;10.012;2023-06-22T03:13:11;16.88;;;10.23;;
5519;SDS011;2782;52.362;10.012;2023-06-22T03:14:12;11.20;;;9.67;;
5519;SDS011;2782;52.362;10.012;2023-06-22T03:15:13;13.32;;;10.65;;
5519;SDS011;2782;52.362;10.012;2023-06-22T03:16:14;16.07;;;10.00;;
5519;SDS011;2782;52.362;10.012;2023-06-22T03:17:17;15.20;;;11.10;;
5519;SDS011;2782;52.362;10.012;2023-06-22T03:18:18;13.38;;;10.60;;
5519;SDS011;2782;52.362;10.012;2023-06-22T03:19:22;14.65;;;10.90;;
5519;SDS011;2782;52.362;10.012;2023-06-22T03:20:23;14.67;;;10.40;;
5519;SDS011;2782;52.362;10.012;2023-06-22T03:21:26;16.98;;;10.70;;
5519;SDS011;2782;52.362;10.012;2023-06-22T03:22:28;12.95;;;9.73;;
5519;SDS011;2782;52.362;10.012;2023-06-22T03:23:29;16.65;;;11.40;;
5519;SDS011;2782;52.362;10.012;2023-06-22T03:24:30;15.73;;;10.83;;
5519;SDS011;2782;52.362;10.012;2023-06-22T03:25:31;20.05;;;10.15;;
5519;SDS011;2782;52.362;10.012;2023-06-22T03:26:33;17.95;;;10.73;;
5519;SDS011;2782;52.362;10.012;2023-06-22T03:27:35;15.68;;;9.68;;
5519;SDS011;2782;52.362;10.012;2023-06-22T03:28:37;16.70;;;10.37;;
5519;SDS011;2782;52.362;10.012;2023-06-22T03:29:38;14.30;;;10.32;;
5519;SDS011;2782;52.362;10.012;2023-06-22T03:30:40;14.73;;;11.07;;
5519;SDS011;2782;52.362;10.012;2023-06-22T03:31:40;14.40;;;10.23;;
5519;SDS011;2782;52.362;10.012;2023-06-22T03:32:43;17.17;;;10.38;;
5519;SDS011;2782;52.362;10.012;2023-06-22T03:33:44;16.52;;;10.73;;
5519;SDS011;2782;52.362;10.012;2023-06-22T03:34:45;15.80;;;10.15;;
5519;SDS011;2782;52.362;10.012;2023-06-22T03:35:47;11.57;;;9.63;;
5519;SDS011;2782;52.362;10.012;2023-06-22T03:36:48;10.85;;;9.70;;
5519;SDS011;2782;52.362;10.012;2023-06-22T03:37:50;16.80;;;10.50;;
5519;SDS011;2782;52.362;10.012;2023-06-22T03:38:51;14.80;;;10.40;;
5519;SDS011;2782;52.362;10.012;2023-06-22T03:39:52;13.30;;;10.05;;
5519;SDS011;2782;52.362;10.012;2023-06-22T03:40:53;12.95;;;9.63;;
5519;SDS011;2782;52.362;10.012;2023-06-22T03:41:55;16.90;;;11.10;;
5519;SDS011;2782;52.362;10.012;2023-06-22T03:42:56;17.30;;;10.07;;
5519;SDS011;2782;52.362;10.012;2023-06-22T03:43:57;16.40;;;10.30;;
5519;SDS011;2782;52.362;10.012;2023-06-22T03:44:58;14.50;;;9.80;;
5519;SDS011;2782;52.362;10.012;2023-06-22T03:46:01;13.63;;;10.00;;
5519;SDS011;2782;52.362;10.012;2023-06-22T03:47:01;16.10;;;10.93;;
5519;SDS011;2782;52.362;10.012;2023-06-22T03:48:04;13.82;;;10.13;;
5519;SDS011;2782;52.362;10.012;2023-06-22T03:49:05;13.98;;;9.90;;
5519;SDS011;2782;52.362;10.012;2023-06-22T03:50:07;19.15;;;11.73;;
5519;SDS011;2782;52.362;10.012;2023-06-22T03:51:08;17.02;;;10.45;;
5519;SDS011;2782;52.362;10.012;2023-06-22T03:52:09;11.45;;;9.75;;
5519;SDS011;2782;52.362;10.012;2023-06-22T03:53:10;14.33;;;11.03;;
5519;SDS011;2782;52.362;10.012;2023-06-22T03:54:13;11.70;;;10.50;;
5519;SDS011;2782;52.362;10.012;2023-06-22T03:55:13;12.20;;;9.30;;
5519;SDS011;2782;52.362;10.012;2023-06-22T03:56:15;12.70;;;9.05;;
5519;SDS011;2782;52.362;10.012;2023-06-22T03:57:20;12.88;;;10.30;;
5519;SDS011;2782;52.362;10.012;2023-06-22T03:58:21;19.85;;;10.45;;
5519;SDS011;2782;52.362;10.012;2023-06-22T03:59:24;14.40;;;10.27;;
5519;SDS011;2782;52.362;10.012;2023-06-22T04:00:26;23.15;;;10.18;;
5519;SDS011;2782;52.362;10.012;2023-06-22T04:01:26;14.40;;;10.70;;
5519;SDS011;2782;52.362;10.012;2023-06-22T04:02:28;13.30;;;10.88;;
5519;SDS011;2782;52.362;10.012;2023-06-22T04:03:30;12.63;;;10.53;;
5519;SDS011;2782;52.362;10.012;2023-06-22T04:04:31;15.85;;;10.75;;
5519;SDS011;2782;52.362;10.012;2023-06-22T04:05:33;14.65;;;9.13;;
5519;SDS011;2782;52.362;10.012;2023-06-22T04:06:35;17.77;;;10.18;;
5519;SDS011;2782;52.362;10.012;2023-06-22T04:07:35;16.00;;;10.87;;
5519;SDS011;2782;52.362;10.012;2023-06-22T04:08:38;17.00;;;11.15;;
5519;SDS011;2782;52.362;10.012;2023-06-22T04:09:39;15.70;;;11.17;;
5519;SDS011;2782;52.362;10.012;2023-06-22T04:10:41;14.45;;;11.45;;
5519;SDS011;2782;52.362;10.012;2023-06-22T04:11:41;18.13;;;12.43;;
5519;SDS011;2782;52.362;10.012;2023-06-22T04:12:43;14.27;;;11.30;;
5519;SDS011;2782;52.362;10.012;2023-06-22T04:13:43;19.40;;;11.43;;
5519;SDS011;2782;52.362;10.012;2023-06-22T04:14:45;16.60;;;11.43;;
5519;SDS011;2782;52.362;10.012;2023-06-22T04:15:46;16.63;;;11.87;;
5519;SDS011;2782;52.362;10.012;2023-06-22T04:16:47;15.65;;;11.73;;
5519;SDS011;2782;52.362;10.012;2023-06-22T04:17:48;16.00;;;12.43;;
5519;SDS011;2782;52.362;10.012;2023-06-22T04:18:51;13.75;;;11.93;;
5519;SDS011;2782;52.362;10.012;2023-06-22T04:19:51;13.65;;;12.15;;
5519;SDS011;2782;52.362;10.012;2023-06-22T04:20:53;16.90;;;12.25;;
5519;SDS011;2782;52.362;10.012;2023-06-22T04:21:53;17.67;;;11.70;;
5519;SDS011;2782;52.362;10.012;2023-06-22T04:22:55;13.30;;;10.75;;
5519;SDS011;2782;52.362;10.012;2023-06-22T04:23:56;13.93;;;11.40;;
5519;SDS011;2782;52.362;10.012;2023-06-22T04:24:57;12.88;;;11.15;;
5519;SDS011;2782;52.362;10.012;2023-06-22T04:25:58;18.30;;;12.10;;
5519;SDS011;2782;52.362;10.012;2023-06-22T04:27:00;14.05;;;11.57;;
5519;SDS011;2782;52.362;10.012;2023-06-22T04:28:02;19.17;;;12.18;;
5519;SDS011;2782;52.362;10.012;2023-06-22T04:29:04;14.52;;;10.75;;
5519;SDS011;2782;52.362;10.012;2023-06-22T04:30:06;14.50;;;11.45;;
5519;SDS011;2782;52.362;10.012;2023-06-22T04:31:08;12.95;;;10.40;;
5519;SDS011;2782;52.362;10.012;2023-06-22T04:32:09;15.40;;;10.93;;
5519;SDS011;2782;52.362;10.012;2023-06-22T04:33:12;14.98;;;10.35;;
5519;SDS011;2782;52.362;10.012;2023-06-22T04:34:15;13.68;;;11.25;;
5519;SDS011;2782;52.362;10.012;2023-06-22T04:35:16;14.18;;;10.75;;
5519;SDS011;2782;52.362;10.012;2023-06-22T04:36:17;16.53;;;11.50;;
5519;SDS011;2782;52.362;10.012;2023-06-22T04:37:18;12.43;;;10.60;;
5519;SDS011;2782;52.362;10.012;2023-06-22T04:38:19;14.43;;;10.40;;
5519;SDS011;2782;52.362;10.012;2023-06-22T04:39:21;14.65;;;10.80;;
5519;SDS011;2782;52.362;10.012;2023-06-22T04:40:22;14.30;;;11.23;;
5519;SDS011;2782;52.362;10.012;2023-06-22T04:41:24;13.98;;;10.63;;
5519;SDS011;2782;52.362;10.012;2023-06-22T04:42:25;14.30;;;10.83;;
5519;SDS011;2782;52.362;10.012;2023-06-22T04:43:27;16.17;;;11.15;;
5519;SDS011;2782;52.362;10.012;2023-06-22T04:44:30;11.85;;;10.60;;
5519;SDS011;2782;52.362;10.012;2023-06-22T04:45:30;14.97;;;11.63;;
5519;SDS011;2782;52.362;10.012;2023-06-22T04:46:32;13.95;;;11.27;;
5519;SDS011;2782;52.362;10.012;2023-06-22T04:47:37;14.18;;;10.40;;
5519;SDS011;2782;52.362;10.012;2023-06-22T04:48:39;14.35;;;9.82;;
5519;SDS011;2782;52.362;10.012;2023-06-22T04:49:41;11.80;;;9.97;;
5519;SDS011;2782;52.362;10.012;2023-06-22T04:50:43;14.40;;;9.98;;
5519;SDS011;2782;52.362;10.012;2023-06-22T04:51:45;14.65;;;9.45;;
5519;SDS011;2782;52.362;10.012;2023-06-22T04:52:46;19.67;;;10.20;;
5519;SDS011;2782;52.362;10.012;2023-06-22T04:53:47;12.15;;;9.45;;
5519;SDS011;2782;52.362;10.012;2023-06-22T04:54:48;12.80;;;10.17;;
5519;SDS011;2782;52.362;10.012;2023-06-22T04:55:55;18.58;;;10.77;;
5519;SDS011;2782;52.362;10.012;2023-06-22T04:56:56;12.77;;;10.35;;
5519;SDS011;2782;52.362;10.012;2023-06-22T04:57:57;13.97;;;11.20;;
5519;SDS011;2782;52.362;10.012;2023-06-22T04:59:04;15.73;;;9.80;;
5519;SDS011;2782;52.362;10.012;2023-06-22T05:00:05;11.30;;;10.10;;
5519;SDS011;2782;52.362;10.012;2023-06-22T05:01:16;12.60;;;10.10;;
5519;SDS011;2782;52.362;10.012;2023-06-22T05:02:17;15.80;;;10.10;;
5519;SDS011;2782;52.362;10.012;2023-06-22T05:03:19;12.07;;;9.88;;
5519;SDS011;2782;52.362;10.012;2023-06-22T05:04:19;12.20;;;9.13;;
5519;SDS011;2782;52.362;10.012;2023-06-22T05:05:23;16.65;;;9.93;;
5519;SDS011;2782;52.362;10.012;2023-06-22T05:06:24;10.82;;;9.73;;
5519;SDS011;2782;52.362;10.012;2023-06-22T05:07:26;13.50;;;9.77;;
5519;SDS011;2782;52.362;10.012;2023-06-22T05:08:26;11.93;;;9.60;;
5519;SDS011;2782;52.362;10.012;2023-06-22T05:09:28;11.52;;;9.15;;
5519;SDS011;2782;52.362;10.012;2023-06-22T05:10:29;19.20;;;10.47;;
5519;SDS011;2782;52.362;10.012;2023-06-22T05:11:31;9.75;;;8.52;;
5519;SDS011;2782;52.362;10.012;2023-06-22T05:12:31;10.30;;;9.20;;
5519;SDS011;2782;52.362;10.012;2023-06-22T05:13:33;13.27;;;9.98;;
5519;SDS011;2782;52.362;10.012;2023-06-22T05:14:34;16.30;;;9.80;;
5519;SDS011;2782;52.362;10.012;2023-06-22T05:15:35;12.27;;;9.32;;
5519;SDS011;2782;52.362;10.012;2023-06-22T05:16:40;14.77;;;10.13;;
5519;SDS011;2782;52.362;10.012;2023-06-22T05:17:44;10.25;;;8.57;;
5519;SDS011;2782;52.362;10.012;2023-06-22T05:18:45;11.70;;;9.80;;
5519;SDS011;2782;52.362;10.012;2023-06-22T05:19:46;11.00;;;9.07;;
5519;SDS011;2782;52.362;10.012;2023-06-22T05:20:50;12.70;;;9.90;;
5519;SDS011;2782;52.362;10.012;2023-06-22T05:21:51;10.70;;;9.35;;
5519;SDS011;2782;52.362;10.012;2023-06-22T05:22:53;11.52;;;8.70;;
5519;SDS011;2782;52.362;10.012;2023-06-22T05:23:54;13.53;;;9.33;;
5519;SDS011;2782;52.362;10.012;2023-06-22T05:24:56;9.30;;;8.40;;
5519;SDS011;2782;52.362;10.012;2023-06-22T05:25:56;9.40;;;8.27;;
5519;SDS011;2782;52.362;10.012;2023-06-22T05:26:58;12.00;;;8.52;;
5519;SDS011;2782;52.362;10.012;2023-06-22T05:27:58;10.97;;;9.20;;
5519;SDS011;2782;52.362;10.012;2023-06-22T05:29:00;9.85;;;8.35;;
5519;SDS011;2782;52.362;10.012;2023-06-22T05:30:02;14.30;;;8.20;;
5519;SDS011;2782;52.362;10.012;2023-06-22T05:31:05;10.80;;;8.60;;
5519;SDS011;2782;52.362;10.012;2023-06-22T05:32:06;10.37;;;9.27;;
5519;SDS011;2782;52.362;10.012;2023-06-22T05:33:08;9.70;;;8.70;;
5519;SDS011;2782;52.362;10.012;2023-06-22T05:34:08;9.50;;;8.20;;
5519;SDS011;2782;52.362;10.012;2023-06-22T05:35:10;11.65;;;8.77;;
5519;SDS011;2782;52.362;10.012;2023-06-22T05:36:12;9.20;;;8.10;;
5519;SDS011;2782;52.362;10.012;2023-06-22T05:37:14;12.82;;;7.72;;
5519;SDS011;2782;52.362;10.012;2023-06-22T05:38:15;9.03;;;8.13;;
5519;SDS011;2782;52.362;10.012;2023-06-22T05:39:16;10.95;;;8.25;;
5519;SDS011;2782;52.362;10.012;2023-06-22T05:40:18;9.40;;;8.18;;
5519;SDS011;2782;52.362;10.012;2023-06-22T05:41:18;9.57;;;8.17;;
5519;SDS011;2782;52.362;10.012;2023-06-22T05:42:21;11.23;;;8.90;;
5519;SDS011;2782;52.362;10.012;2023-06-22T05:43:21;12.10;;;7.95;;
5519;SDS011;2782;52.362;10.012;2023-06-22T05:44:23;9.77;;;7.68;;
5519;SDS011;2782;52.362;10.012;2023-06-22T05:45:25;13.98;;;8.00;;
5519;SDS011;2782;52.362;10.012;2023-06-22T05:46:25;10.53;;;8.33;;
5519;SDS011;2782;52.362;10.012;2023-06-22T05:47:27;8.07;;;7.22;;
5519;SDS011;2782;52.362;10.012;2023-06-22T05:48:28;9.47;;;8.00;;
5519;SDS011;2782;52.362;10.012;2023-06-22T05:49:29;9.48;;;7.80;;
5519;SDS011;2782;52.362;10.012;2023-06-22T05:50:32;11.30;;;8.98;;
5519;SDS011;2782;52.362;10.012;2023-06-22T05:51:35;12.13;;;7.88;;
5519;SDS011;2782;52.362;10.012;2023-06-22T05:52:37;9.20;;;7.28;;
5519;SDS011;2782;52.362;10.012;2023-06-22T05:53:37;8.80;;;7.37;;
5519;SDS011;2782;52.362;10.012;2023-06-22T05:54:39;9.60;;;8.35;;
5519;SDS011;2782;52.362;10.012;2023-06-22T05:55:41;9.15;;;7.53;;
5519;SDS011;2782;52.362;10.012;2023-06-22T05:56:43;8.90;;;8.00;;
5519;SDS011;2782;52.362;10.012;2023-06-22T05:57:44;9.60;;;8.20;;
5519;SDS011;2782;52.362;10.012;2023-06-22T05:58:45;10.80;;;8.75;;
5519;SDS011;2782;52.362;10.012;2023-06-22T05:59:46;9.02;;;7.68;;
5519;SDS011;2782;52.362;10.012;2023-06-22T06:00:48;8.45;;;7.07;;
5519;SDS011;2782;52.362;10.012;2023-06-22T06:01:50;8.32;;;7.22;;
5519;SDS011;2782;52.362;10.012;2023-06-22T06:02:50;8.40;;;7.50;;
5519;SDS011;2782;52.362;10.012;2023-06-22T06:03:52;7.88;;;7.07;;
5519;SDS011;2782;52.362;10.012;2023-06-22T06:04:54;9.07;;;6.88;;
5519;SDS011;2782;52.362;10.012;2023-06-22T06:05:55;8.30;;;6.68;;
5519;SDS011;2782;52.362;10.012;2023-06-22T06:06:57;10.33;;;7.50;;
5519;SDS011;2782;52.362;10.012;2023-06-22T06:07:59;10.60;;;7.50;;
5519;SDS011;2782;52.362;10.012;2023-06-22T06:09:00;8.82;;;6.75;;
5519;SDS011;2782;52.362;10.012;2023-06-22T06:10:01;8.82;;;7.60;;
5519;SDS011;2782;52.362;10.012;2023-06-22T06:11:02;10.00;;;6.60;;
5519;SDS011;2782;52.362;10.012;2023-06-22T06:12:04;6.95;;;6.25;;